sensor_id;sensor_type;location;lat;lon;timestamp;P1;durP1;ratioP1;P2;durP2;ratioP2
6878;SDS011;3478;51.462;7.338;2023-11-21T00:04:59;17.13;;;10.27;;
6878;SDS011;3478;51.462;7.338;2023-11-21T00:10:05;17.37;;;10.50;;
6878;SDS011;3478;51.462;7.338;2023-11-21T00:15:08;18.13;;;9.97;;
6878;SDS011;3478;51.462;7.338;2023-11-21T00:20:12;17.77;;;10.97;;
6878;SDS011;3478;51.462;7.338;2023-11-21T00:25:15;22.00;;;11.17;;
6878;SDS011;3478;51.462;7.338;2023-11-21T00:30:17;21.50;;;14.70;;
6878;SDS011;3478;51.462;7.338;2023-11-21T00:35:20;34.63;;;17.03;;
6878;SDS011;3478;51.462;7.338;2023-11-21T00:40:23;13.57;;;9.33;;
6878;SDS011;3478;51.462;7.338;2023-11-21T00:45:25;14.43;;;10.30;;
6878;SDS011;3478;51.462;7.338;2023-11-21T00:50:27;19.90;;;9.17;;
6878;SDS011;3478;51.462;7.338;2023-11-21T00:55:30;12.87;;;9.60;;
6878;SDS011;3478;51.462;7.338;2023-11-21T01:00:32;16.90;;;9.07;;
6878;SDS011;3478;51.462;7.338;2023-11-21T01:05:34;15.73;;;10.03;;
6878;SDS011;3478;51.462;7.338;2023-11-21T01:10:37;13.10;;;9.17;;
6878;SDS011;3478;51.462;7.338;2023-11-21T01:15:39;10.40;;;8.07;;
6878;SDS011;3478;51.462;7.338;2023-11-21T01:20:41;12.50;;;8.80;;
6878;SDS011;3478;51.462;7.338;2023-11-21T01:25:45;14.50;;;8.67;;
6878;SDS011;3478;51.462;7.338;2023-11-21T01:30:47;15.00;;;9.33;;
6878;SDS011;3478;51.462;7.338;2023-11-21T01:35:49;15.60;;;10.23;;
6878;SDS011;3478;51.462;7.338;2023-11-21T01:40:54;16.43;;;9.30;;
6878;SDS011;3478;51.462;7.338;2023-11-21T01:45:56;14.37;;;10.10;;
6878;SDS011;3478;51.462;7.338;2023-11-21T01:50:58;15.43;;;9.97;;
6878;SDS011;3478;51.462;7.338;2023-11-21T01:56:02;12.57;;;9.67;;
6878;SDS011;3478;51.462;7.338;2023-11-21T02:01:04;22.73;;;10.60;;
6878;SDS011;3478;51.462;7.338;2023-11-21T02:06:07;21.63;;;11.80;;
6878;SDS011;3478;51.462;7.338;2023-11-21T02:11:10;17.60;;;11.40;;
6878;SDS011;3478;51.462;7.338;2023-11-21T02:16:13;15.30;;;10.50;;
6878;SDS011;3478;51.462;7.338;2023-11-21T02:21:15;19.93;;;11.47;;
6878;SDS011;3478;51.462;7.338;2023-11-21T02:26:18;18.37;;;11.57;;
6878;SDS011;3478;51.462;7.338;2023-11-21T02:31:20;19.17;;;11.63;;
6878;SDS011;3478;51.462;7.338;2023-11-21T02:36:23;14.03;;;10.37;;
6878;SDS011;3478;51.462;7.338;2023-11-21T02:41:27;16.80;;;11.70;;
6878;SDS011;3478;51.462;7.338;2023-11-21T02:46:30;13.27;;;11.80;;
6878;SDS011;3478;51.462;7.338;2023-11-21T02:51:32;12.77;;;10.50;;
6878;SDS011;3478;51.462;7.338;2023-11-21T02:56:35;18.53;;;12.73;;
6878;SDS011;3478;51.462;7.338;2023-11-21T03:01:37;18.50;;;11.20;;
6878;SDS011;3478;51.462;7.338;2023-11-21T03:06:39;24.27;;;12.10;;
6878;SDS011;3478;51.462;7.338;2023-11-21T03:11:42;21.03;;;12.77;;
6878;SDS011;3478;51.462;7.338;2023-11-21T03:16:44;24.40;;;12.73;;
6878;SDS011;3478;51.462;7.338;2023-11-21T03:21:46;25.37;;;11.80;;
6878;SDS011;3478;51.462;7.338;2023-11-21T03:26:49;18.53;;;9.70;;
6878;SDS011;3478;51.462;7.338;2023-11-21T03:31:51;20.53;;;12.20;;
6878;SDS011;3478;51.462;7.338;2023-11-21T03:36:52;16.77;;;11.03;;
6878;SDS011;3478;51.462;7.338;2023-11-21T03:41:56;16.50;;;11.10;;
6878;SDS011;3478;51.462;7.338;2023-11-21T03:46:58;21.80;;;13.33;;
6878;SDS011;3478;51.462;7.338;2023-11-21T03:52:00;16.40;;;11.63;;
6878;SDS011;3478;51.462;7.338;2023-11-21T03:57:04;22.27;;;11.43;;
6878;SDS011;3478;51.462;7.338;2023-11-21T04:02:06;18.80;;;10.13;;
6878;SDS011;3478;51.462;7.338;2023-11-21T04:07:08;14.00;;;10.20;;
6878;SDS011;3478;51.462;7.338;2023-11-21T04:12:12;18.00;;;11.33;;
6878;SDS011;3478;51.462;7.338;2023-11-21T04:17:14;16.40;;;10.90;;
6878;SDS011;3478;51.462;7.338;2023-11-21T04:22:19;19.03;;;10.33;;
6878;SDS011;3478;51.462;7.338;2023-11-21T04:27:22;16.63;;;9.70;;
6878;SDS011;3478;51.462;7.338;2023-11-21T04:32:24;16.13;;;10.57;;
6878;SDS011;3478;51.462;7.338;2023-11-21T04:37:26;19.13;;;11.53;;
6878;SDS011;3478;51.462;7.338;2023-11-21T04:42:29;16.20;;;9.37;;
6878;SDS011;3478;51.462;7.338;2023-11-21T04:47:31;20.53;;;11.20;;
6878;SDS011;3478;51.462;7.338;2023-11-21T04:52:32;26.73;;;11.70;;
6878;SDS011;3478;51.462;7.338;2023-11-21T04:57:35;26.43;;;11.37;;
6878;SDS011;3478;51.462;7.338;2023-11-21T05:02:37;19.93;;;11.83;;
6878;SDS011;3478;51.462;7.338;2023-11-21T05:07:40;20.07;;;12.43;;
6878;SDS011;3478;51.462;7.338;2023-11-21T05:12:44;15.73;;;10.80;;
6878;SDS011;3478;51.462;7.338;2023-11-21T05:17:46;25.80;;;13.23;;
6878;SDS011;3478;51.462;7.338;2023-11-21T05:22:50;20.07;;;12.80;;
6878;SDS011;3478;51.462;7.338;2023-11-21T05:27:53;26.97;;;13.33;;
6878;SDS011;3478;51.462;7.338;2023-11-21T05:32:55;25.07;;;13.10;;
6878;SDS011;3478;51.462;7.338;2023-11-21T05:37:57;25.17;;;14.20;;
6878;SDS011;3478;51.462;7.338;2023-11-21T05:43:00;20.57;;;13.50;;
6878;SDS011;3478;51.462;7.338;2023-11-21T05:48:02;22.40;;;14.57;;
6878;SDS011;3478;51.462;7.338;2023-11-21T05:53:04;26.83;;;14.63;;
6878;SDS011;3478;51.462;7.338;2023-11-21T05:58:07;26.30;;;13.50;;
6878;SDS011;3478;51.462;7.338;2023-11-21T06:03:09;24.53;;;13.50;;
6878;SDS011;3478;51.462;7.338;2023-11-21T06:08:12;22.40;;;13.20;;
6878;SDS011;3478;51.462;7.338;2023-11-21T06:13:18;22.40;;;12.77;;
6878;SDS011;3478;51.462;7.338;2023-11-21T06:18:24;22.43;;;11.60;;
6878;SDS011;3478;51.462;7.338;2023-11-21T06:23:26;29.40;;;12.03;;
6878;SDS011;3478;51.462;7.338;2023-11-21T06:28:29;20.83;;;12.27;;
6878;SDS011;3478;51.462;7.338;2023-11-21T06:33:31;20.90;;;13.33;;
6878;SDS011;3478;51.462;7.338;2023-11-21T06:38:32;30.70;;;13.63;;
6878;SDS011;3478;51.462;7.338;2023-11-21T06:43:36;26.87;;;14.27;;
6878;SDS011;3478;51.462;7.338;2023-11-21T06:48:37;23.07;;;12.77;;
6878;SDS011;3478;51.462;7.338;2023-11-21T06:53:39;23.00;;;13.03;;
6878;SDS011;3478;51.462;7.338;2023-11-21T06:58:42;28.80;;;16.03;;
6878;SDS011;3478;51.462;7.338;2023-11-21T07:03:46;24.40;;;13.93;;
6878;SDS011;3478;51.462;7.338;2023-11-21T07:08:47;27.70;;;16.50;;
6878;SDS011;3478;51.462;7.338;2023-11-21T07:13:51;24.47;;;14.50;;
6878;SDS011;3478;51.462;7.338;2023-11-21T07:18:52;31.40;;;16.77;;
6878;SDS011;3478;51.462;7.338;2023-11-21T07:23:55;29.93;;;16.17;;
6878;SDS011;3478;51.462;7.338;2023-11-21T07:28:58;30.57;;;14.83;;
6878;SDS011;3478;51.462;7.338;2023-11-21T07:34:00;24.83;;;14.10;;
6878;SDS011;3478;51.462;7.338;2023-11-21T07:39:02;22.27;;;13.33;;
6878;SDS011;3478;51.462;7.338;2023-11-21T07:44:05;28.20;;;14.47;;
6878;SDS011;3478;51.462;7.338;2023-11-21T07:49:07;23.87;;;13.70;;
6878;SDS011;3478;51.462;7.338;2023-11-21T07:54:09;20.27;;;12.13;;
6878;SDS011;3478;51.462;7.338;2023-11-21T07:59:12;32.87;;;15.30;;
6878;SDS011;3478;51.462;7.338;2023-11-21T08:04:14;27.00;;;15.00;;
6878;SDS011;3478;51.462;7.338;2023-11-21T08:09:16;22.00;;;11.57;;
6878;SDS011;3478;51.462;7.338;2023-11-21T08:14:19;19.77;;;13.43;;
6878;SDS011;3478;51.462;7.338;2023-11-21T08:19:21;27.90;;;13.20;;
6878;SDS011;3478;51.462;7.338;2023-11-21T08:24:24;28.47;;;13.53;;
6878;SDS011;3478;51.462;7.338;2023-11-21T08:29:29;21.77;;;12.70;;
6878;SDS011;3478;51.462;7.338;2023-11-21T08:34:31;26.90;;;14.87;;
6878;SDS011;3478;51.462;7.338;2023-11-21T08:39:33;26.53;;;12.90;;
6878;SDS011;3478;51.462;7.338;2023-11-21T08:44:36;36.80;;;22.30;;
6878;SDS011;3478;51.462;7.338;2023-11-21T08:49:38;30.33;;;14.63;;
6878;SDS011;3478;51.462;7.338;2023-11-21T08:54:40;30.97;;;19.47;;
6878;SDS011;3478;51.462;7.338;2023-11-21T08:59:45;32.43;;;20.27;;
6878;SDS011;3478;51.462;7.338;2023-11-21T09:04:47;40.57;;;23.50;;
6878;SDS011;3478;51.462;7.338;2023-11-21T09:09:48;31.60;;;23.90;;
6878;SDS011;3478;51.462;7.338;2023-11-21T09:14:52;73.00;;;44.80;;
6878;SDS011;3478;51.462;7.338;2023-11-21T09:19:54;40.13;;;22.43;;
6878;SDS011;3478;51.462;7.338;2023-11-21T09:24:57;54.10;;;29.03;;
6878;SDS011;3478;51.462;7.338;2023-11-21T09:30:00;89.70;;;52.80;;
6878;SDS011;3478;51.462;7.338;2023-11-21T09:35:02;53.67;;;28.30;;
6878;SDS011;3478;51.462;7.338;2023-11-21T09:40:04;47.73;;;24.40;;
6878;SDS011;3478;51.462;7.338;2023-11-21T09:45:15;63.33;;;30.00;;
6878;SDS011;3478;51.462;7.338;2023-11-21T09:50:24;52.77;;;25.03;;
6878;SDS011;3478;51.462;7.338;2023-11-21T09:55:27;65.33;;;36.20;;
6878;SDS011;3478;51.462;7.338;2023-11-21T10:00:32;69.67;;;29.57;;
6878;SDS011;3478;51.462;7.338;2023-11-21T10:05:34;88.97;;;53.13;;
6878;SDS011;3478;51.462;7.338;2023-11-21T10:10:36;62.53;;;27.33;;
6878;SDS011;3478;51.462;7.338;2023-11-21T10:15:43;59.87;;;31.13;;
6878;SDS011;3478;51.462;7.338;2023-11-21T10:20:48;58.10;;;27.43;;
6878;SDS011;3478;51.462;7.338;2023-11-21T10:25:52;64.03;;;30.37;;
6878;SDS011;3478;51.462;7.338;2023-11-21T10:30:56;56.00;;;28.43;;
6878;SDS011;3478;51.462;7.338;2023-11-21T10:35:58;56.40;;;27.60;;
6878;SDS011;3478;51.462;7.338;2023-11-21T10:41:01;48.73;;;26.37;;
6878;SDS011;3478;51.462;7.338;2023-11-21T10:46:08;64.57;;;30.70;;
6878;SDS011;3478;51.462;7.338;2023-11-21T10:51:10;57.10;;;25.90;;
6878;SDS011;3478;51.462;7.338;2023-11-21T10:56:13;46.33;;;24.50;;
6878;SDS011;3478;51.462;7.338;2023-11-21T11:01:19;68.27;;;26.40;;
6878;SDS011;3478;51.462;7.338;2023-11-21T11:06:22;48.13;;;23.60;;
6878;SDS011;3478;51.462;7.338;2023-11-21T11:11:27;75.57;;;37.10;;
6878;SDS011;3478;51.462;7.338;2023-11-21T11:16:32;65.60;;;30.73;;
6878;SDS011;3478;51.462;7.338;2023-11-21T11:21:37;73.70;;;28.77;;
6878;SDS011;3478;51.462;7.338;2023-11-21T11:26:50;52.57;;;27.70;;
6878;SDS011;3478;51.462;7.338;2023-11-21T11:32:02;59.20;;;32.50;;
6878;SDS011;3478;51.462;7.338;2023-11-21T11:37:11;63.80;;;30.30;;
6878;SDS011;3478;51.462;7.338;2023-11-21T11:42:14;94.70;;;43.63;;
6878;SDS011;3478;51.462;7.338;2023-11-21T11:47:22;56.60;;;25.50;;
6878;SDS011;3478;51.462;7.338;2023-11-21T11:52:36;49.40;;;24.17;;
6878;SDS011;3478;51.462;7.338;2023-11-21T11:57:40;48.53;;;22.77;;
6878;SDS011;3478;51.462;7.338;2023-11-21T12:02:46;33.23;;;19.80;;
6878;SDS011;3478;51.462;7.338;2023-11-21T12:07:50;35.73;;;19.47;;
6878;SDS011;3478;51.462;7.338;2023-11-21T12:12:54;29.93;;;17.97;;
6878;SDS011;3478;51.462;7.338;2023-11-21T12:17:59;25.77;;;16.87;;
6878;SDS011;3478;51.462;7.338;2023-11-21T12:23:01;28.13;;;15.73;;
6878;SDS011;3478;51.462;7.338;2023-11-21T12:28:03;33.00;;;18.37;;
6878;SDS011;3478;51.462;7.338;2023-11-21T12:33:07;27.30;;;16.93;;
6878;SDS011;3478;51.462;7.338;2023-11-21T12:38:09;37.20;;;16.27;;
6878;SDS011;3478;51.462;7.338;2023-11-21T12:43:11;23.13;;;13.70;;
6878;SDS011;3478;51.462;7.338;2023-11-21T12:48:14;24.03;;;13.40;;
6878;SDS011;3478;51.462;7.338;2023-11-21T12:53:22;15.20;;;11.87;;
6878;SDS011;3478;51.462;7.338;2023-11-21T12:58:24;20.03;;;11.20;;
6878;SDS011;3478;51.462;7.338;2023-11-21T13:03:28;16.30;;;11.10;;
6878;SDS011;3478;51.462;7.338;2023-11-21T13:08:30;16.00;;;11.70;;
6878;SDS011;3478;51.462;7.338;2023-11-21T13:13:33;14.30;;;10.47;;
6878;SDS011;3478;51.462;7.338;2023-11-21T13:18:36;14.97;;;11.50;;
6878;SDS011;3478;51.462;7.338;2023-11-21T13:23:40;17.57;;;12.27;;
6878;SDS011;3478;51.462;7.338;2023-11-21T13:28:43;16.87;;;10.97;;
6878;SDS011;3478;51.462;7.338;2023-11-21T13:33:48;20.73;;;13.33;;
6878;SDS011;3478;51.462;7.338;2023-11-21T13:38:55;19.47;;;13.00;;
6878;SDS011;3478;51.462;7.338;2023-11-21T13:43:58;17.93;;;11.73;;
6878;SDS011;3478;51.462;7.338;2023-11-21T13:49:15;14.40;;;9.87;;
6878;SDS011;3478;51.462;7.338;2023-11-21T13:54:19;17.03;;;10.10;;
6878;SDS011;3478;51.462;7.338;2023-11-21T13:59:24;17.17;;;10.03;;
6878;SDS011;3478;51.462;7.338;2023-11-21T14:04:29;16.13;;;9.97;;
6878;SDS011;3478;51.462;7.338;2023-11-21T14:09:53;18.10;;;10.27;;
6878;SDS011;3478;51.462;7.338;2023-11-21T14:14:55;18.67;;;10.80;;
6878;SDS011;3478;51.462;7.338;2023-11-21T14:19:58;15.97;;;11.00;;
6878;SDS011;3478;51.462;7.338;2023-11-21T14:25:01;11.37;;;9.53;;
6878;SDS011;3478;51.462;7.338;2023-11-21T14:30:04;12.30;;;8.13;;
6878;SDS011;3478;51.462;7.338;2023-11-21T14:35:08;12.57;;;8.80;;
6878;SDS011;3478;51.462;7.338;2023-11-21T14:40:11;14.07;;;9.10;;
6878;SDS011;3478;51.462;7.338;2023-11-21T14:45:15;11.23;;;8.03;;
6878;SDS011;3478;51.462;7.338;2023-11-21T14:50:21;13.30;;;7.77;;
6878;SDS011;3478;51.462;7.338;2023-11-21T14:55:45;11.30;;;6.40;;
6878;SDS011;3478;51.462;7.338;2023-11-21T15:00:58;10.03;;;7.87;;
6878;SDS011;3478;51.462;7.338;2023-11-21T15:06:02;7.90;;;5.37;;
6878;SDS011;3478;51.462;7.338;2023-11-21T15:11:19;9.50;;;6.50;;
6878;SDS011;3478;51.462;7.338;2023-11-21T15:16:25;7.73;;;6.70;;
6878;SDS011;3478;51.462;7.338;2023-11-21T15:21:28;6.73;;;6.03;;
6878;SDS011;3478;51.462;7.338;2023-11-21T15:26:30;8.23;;;5.10;;
6878;SDS011;3478;51.462;7.338;2023-11-21T15:31:32;5.63;;;4.97;;
6878;SDS011;3478;51.462;7.338;2023-11-21T15:36:35;8.33;;;7.43;;
6878;SDS011;3478;51.462;7.338;2023-11-21T15:41:37;11.00;;;8.17;;
6878;SDS011;3478;51.462;7.338;2023-11-21T15:46:41;10.00;;;7.93;;
6878;SDS011;3478;51.462;7.338;2023-11-21T15:51:44;13.20;;;9.40;;
6878;SDS011;3478;51.462;7.338;2023-11-21T15:56:47;12.20;;;9.60;;
6878;SDS011;3478;51.462;7.338;2023-11-21T16:01:49;15.17;;;10.70;;
6878;SDS011;3478;51.462;7.338;2023-11-21T16:06:52;17.10;;;12.17;;
6878;SDS011;3478;51.462;7.338;2023-11-21T16:11:54;13.50;;;10.80;;
6878;SDS011;3478;51.462;7.338;2023-11-21T16:17:00;13.60;;;10.07;;
6878;SDS011;3478;51.462;7.338;2023-11-21T16:22:04;12.33;;;8.87;;
6878;SDS011;3478;51.462;7.338;2023-11-21T16:27:06;9.33;;;8.10;;
6878;SDS011;3478;51.462;7.338;2023-11-21T16:32:10;13.00;;;8.80;;
6878;SDS011;3478;51.462;7.338;2023-11-21T16:37:13;11.73;;;8.30;;
6878;SDS011;3478;51.462;7.338;2023-11-21T16:42:15;9.77;;;7.83;;
6878;SDS011;3478;51.462;7.338;2023-11-21T16:47:17;10.10;;;7.20;;
6878;SDS011;3478;51.462;7.338;2023-11-21T16:52:20;10.50;;;8.40;;
6878;SDS011;3478;51.462;7.338;2023-11-21T16:57:23;10.87;;;7.90;;
6878;SDS011;3478;51.462;7.338;2023-11-21T17:02:24;12.33;;;9.30;;
6878;SDS011;3478;51.462;7.338;2023-11-21T17:07:28;12.10;;;9.43;;
6878;SDS011;3478;51.462;7.338;2023-11-21T17:12:29;12.33;;;10.00;;
6878;SDS011;3478;51.462;7.338;2023-11-21T17:17:31;11.70;;;9.47;;
6878;SDS011;3478;51.462;7.338;2023-11-21T17:22:35;13.67;;;10.70;;
6878;SDS011;3478;51.462;7.338;2023-11-21T17:27:37;10.73;;;9.50;;
6878;SDS011;3478;51.462;7.338;2023-11-21T17:32:38;11.43;;;10.23;;
6878;SDS011;3478;51.462;7.338;2023-11-21T17:37:42;13.83;;;9.87;;
6878;SDS011;3478;51.462;7.338;2023-11-21T17:42:44;7.93;;;7.23;;
6878;SDS011;3478;51.462;7.338;2023-11-21T17:47:45;10.93;;;9.40;;
6878;SDS011;3478;51.462;7.338;2023-11-21T17:52:49;11.87;;;8.77;;
6878;SDS011;3478;51.462;7.338;2023-11-21T17:57:51;13.10;;;8.40;;
6878;SDS011;3478;51.462;7.338;2023-11-21T18:02:52;10.27;;;7.63;;
6878;SDS011;3478;51.462;7.338;2023-11-21T18:07:56;10.53;;;8.33;;
6878;SDS011;3478;51.462;7.338;2023-11-21T18:12:58;16.57;;;7.40;;
6878;SDS011;3478;51.462;7.338;2023-11-21T18:17:59;8.30;;;6.77;;
6878;SDS011;3478;51.462;7.338;2023-11-21T18:23:03;10.17;;;7.20;;
6878;SDS011;3478;51.462;7.338;2023-11-21T18:28:04;11.40;;;7.40;;
6878;SDS011;3478;51.462;7.338;2023-11-21T18:33:08;8.90;;;7.90;;
6878;SDS011;3478;51.462;7.338;2023-11-21T18:38:11;13.30;;;7.97;;
6878;SDS011;3478;51.462;7.338;2023-11-21T18:43:13;14.17;;;8.83;;
6878;SDS011;3478;51.462;7.338;2023-11-21T18:48:15;9.80;;;7.43;;
6878;SDS011;3478;51.462;7.338;2023-11-21T18:53:20;12.10;;;9.83;;
6878;SDS011;3478;51.462;7.338;2023-11-21T18:58:23;12.57;;;9.50;;
6878;SDS011;3478;51.462;7.338;2023-11-21T19:03:25;8.20;;;7.33;;
6878;SDS011;3478;51.462;7.338;2023-11-21T19:08:28;8.83;;;7.60;;
6878;SDS011;3478;51.462;7.338;2023-11-21T19:13:30;11.23;;;10.03;;
6878;SDS011;3478;51.462;7.338;2023-11-21T19:18:32;9.93;;;8.90;;
6878;SDS011;3478;51.462;7.338;2023-11-21T19:23:35;11.50;;;8.80;;
6878;SDS011;3478;51.462;7.338;2023-11-21T19:28:37;8.07;;;7.27;;
6878;SDS011;3478;51.462;7.338;2023-11-21T19:33:39;12.17;;;8.57;;
6878;SDS011;3478;51.462;7.338;2023-11-21T19:38:42;9.57;;;8.03;;
6878;SDS011;3478;51.462;7.338;2023-11-21T19:43:45;16.97;;;8.30;;
6878;SDS011;3478;51.462;7.338;2023-11-21T19:48:48;8.77;;;7.90;;
6878;SDS011;3478;51.462;7.338;2023-11-21T19:53:54;9.37;;;8.37;;
6878;SDS011;3478;51.462;7.338;2023-11-21T19:58:56;10.30;;;8.90;;
6878;SDS011;3478;51.462;7.338;2023-11-21T20:03:57;9.20;;;8.30;;
6878;SDS011;3478;51.462;7.338;2023-11-21T20:09:01;15.50;;;9.63;;
6878;SDS011;3478;51.462;7.338;2023-11-21T20:14:03;12.70;;;9.00;;
6878;SDS011;3478;51.462;7.338;2023-11-21T20:19:05;8.70;;;7.57;;
6878;SDS011;3478;51.462;7.338;2023-11-21T20:24:09;12.47;;;8.07;;
6878;SDS011;3478;51.462;7.338;2023-11-21T20:29:13;8.63;;;7.67;;
6878;SDS011;3478;51.462;7.338;2023-11-21T20:34:15;12.93;;;9.30;;
6878;SDS011;3478;51.462;7.338;2023-11-21T20:39:18;11.63;;;9.00;;
6878;SDS011;3478;51.462;7.338;2023-11-21T20:44:20;10.63;;;6.77;;
6878;SDS011;3478;51.462;7.338;2023-11-21T20:49:23;8.60;;;7.50;;
6878;SDS011;3478;51.462;7.338;2023-11-21T20:54:26;9.30;;;8.30;;
6878;SDS011;3478;51.462;7.338;2023-11-21T20:59:28;9.33;;;8.10;;
6878;SDS011;3478;51.462;7.338;2023-11-21T21:04:30;11.00;;;8.00;;
6878;SDS011;3478;51.462;7.338;2023-11-21T21:09:34;13.17;;;8.70;;
6878;SDS011;3478;51.462;7.338;2023-11-21T21:14:37;11.83;;;8.43;;
6878;SDS011;3478;51.462;7.338;2023-11-21T21:19:38;9.37;;;7.90;;
6878;SDS011;3478;51.462;7.338;2023-11-21T21:24:42;9.40;;;8.47;;
6878;SDS011;3478;51.462;7.338;2023-11-21T21:29:44;8.80;;;7.40;;
6878;SDS011;3478;51.462;7.338;2023-11-21T21:34:45;8.90;;;7.53;;
6878;SDS011;3478;51.462;7.338;2023-11-21T21:39:49;10.30;;;7.77;;
6878;SDS011;3478;51.462;7.338;2023-11-21T21:44:51;9.50;;;8.23;;
6878;SDS011;3478;51.462;7.338;2023-11-21T21:49:53;10.90;;;7.20;;
6878;SDS011;3478;51.462;7.338;2023-11-21T21:54:56;9.70;;;7.90;;
6878;SDS011;3478;51.462;7.338;2023-11-21T21:59:58;7.20;;;5.80;;
6878;SDS011;3478;51.462;7.338;2023-11-21T22:05:00;10.30;;;7.57;;
6878;SDS011;3478;51.462;7.338;2023-11-21T22:10:03;8.70;;;5.40;;
6878;SDS011;3478;51.462;7.338;2023-11-21T22:15:06;7.80;;;7.00;;
6878;SDS011;3478;51.462;7.338;2023-11-21T22:20:10;8.07;;;6.47;;
6878;SDS011;3478;51.462;7.338;2023-11-21T22:25:13;8.40;;;7.60;;
6878;SDS011;3478;51.462;7.338;2023-11-21T22:30:16;7.90;;;7.20;;
6878;SDS011;3478;51.462;7.338;2023-11-21T22:35:18;7.67;;;6.70;;
6878;SDS011;3478;51.462;7.338;2023-11-21T22:40:21;6.83;;;5.80;;
6878;SDS011;3478;51.462;7.338;2023-11-21T22:45:23;6.80;;;5.97;;
6878;SDS011;3478;51.462;7.338;2023-11-21T22:50:25;6.90;;;6.30;;
6878;SDS011;3478;51.462;7.338;2023-11-21T22:55:28;5.60;;;5.13;;
6878;SDS011;3478;51.462;7.338;2023-11-21T23:00:30;6.43;;;5.83;;
6878;SDS011;3478;51.462;7.338;2023-11-21T23:05:33;8.30;;;6.10;;
6878;SDS011;3478;51.462;7.338;2023-11-21T23:10:36;7.83;;;6.20;;
6878;SDS011;3478;51.462;7.338;2023-11-21T23:15:39;8.60;;;6.40;;
6878;SDS011;3478;51.462;7.338;2023-11-21T23:20:42;6.93;;;6.37;;
6878;SDS011;3478;51.462;7.338;2023-11-21T23:25:46;5.93;;;5.30;;
6878;SDS011;3478;51.462;7.338;2023-11-21T23:30:48;9.30;;;5.67;;
6878;SDS011;3478;51.462;7.338;2023-11-21T23:35:51;6.97;;;5.97;;
6878;SDS011;3478;51.462;7.338;2023-11-21T23:40:54;5.53;;;5.03;;
6878;SDS011;3478;51.462;7.338;2023-11-21T23:45:57;7.00;;;6.23;;
6878;SDS011;3478;51.462;7.338;2023-11-21T23:50:58;6.53;;;5.93;;
6878;SDS011;3478;51.462;7.338;2023-11-21T23:56:02;8.10;;;6.53;;
